CYYU

Kapuskasing Airport

Kapuskasing, Ontario, Canada
TAF CYYU 241938Z 2420/2508 16012G22KT P6SM BKN140 TEMPO 2420/2423 BKN015 PROB30 2420/2423 OVC007 FM242300 17012KT P6SM SCT220 TEMPO 2423/2501 BKN015 FM250300 17012KT P6SM BKN030 PROB30 2506/2508 2SM -DZ BR OVC004 RMK NXT FCST BY 250200Z
Issued Valid From Valid To
Sep-24 @ 19:38 UTC
(4 hours ago)
Sep-24 @ 20:00 UTC
(4 hours ago)
Sep-25 @ 08:00 UTC
(in 8 hours)
Expired Click to View Sep-24 @ 20:00 to Sep-24 @ 23:00
TAF CYYU 241938Z 2420/2508 16012G22KT P6SM BKN140
Wind Visibility Clouds
160° at 12 knots
 Gusting to 22 knots
Greater than 6 miles
  • Broken at 14,000' AGL
Expired Click to View Sep-24 @ 20:00 to Sep-24 @ 23:00
PROB30 2420/2423 OVC007
Clouds
  • Overcast at 700' AGL
Expired Click to View Sep-24 @ 20:00 to Sep-24 @ 23:00
TEMPO 2420/2423 BKN015
Clouds
  • Broken at 1,500' AGL
Temporary Sep-24 @ 23:00 to Sep-25 @ 01:00
TEMPO 2423/2501 BKN015
Clouds
  • Broken at 1,500' AGL
From Sep-24 @ 23:00 to Sep-25 @ 03:00
FM242300 17012KT P6SM SCT220
Wind Visibility Clouds
170° at 12 knots Greater than 6 miles
  • Scattered at 22,000' AGL
From Sep-25 @ 03:00 to Sep-25 @ 08:00
FM250300 17012KT P6SM BKN030
Wind Visibility Clouds
170° at 12 knots Greater than 6 miles
  • Broken at 3,000' AGL
Probable  (Probability 30%) Sep-25 @ 06:00 to Sep-25 @ 08:00
PROB30 2506/2508 2SM -DZ BR OVC004 RMK NXT FCST BY 250200Z
Visibility Clouds Conditions
2 miles
  • Overcast at 400' AGL
  • Light Drizzle
  • Mist
TAF CYYU 241938Z 2420/2508 16012G22KT P6SM BKN140 TEMPO 2420/2423 BKN015 PROB30 2420/2423 OVC007 FM242300 17012KT P6SM SCT220 TEMPO 2423/2501 BKN015 FM250300 17012KT P6SM BKN030 PROB30 2506/2508 2SM -DZ BR OVC004 RMK NXT FCST BY 250200Z
Issued Sep-24 @ 19:38 UTC
(4 hours ago)
Valid From Sep-24 @ 20:00 UTC
(4 hours ago)
Valid To Sep-25 @ 08:00 UTC
(in 8 hours)
Sep-24 @ 20:00 - Sep-24 @ 23:00
Wind Visibility
160° at 12 knots
 Gusting to 22 knots
Greater than 6 miles
Clouds
  • Broken at 14,000' AGL
Sep-24 @ 20:00 - Sep-24 @ 23:00
Clouds
  • Overcast at 700' AGL
Sep-24 @ 20:00 - Sep-24 @ 23:00
Clouds
  • Broken at 1,500' AGL
Temporary Sep-24 @ 23:00 - Sep-25 @ 01:00
Clouds
  • Broken at 1,500' AGL
From Sep-24 @ 23:00 - Sep-25 @ 03:00
Wind Visibility
170° at 12 knots Greater than 6 miles
Clouds
  • Scattered at 22,000' AGL
From Sep-25 @ 03:00 - Sep-25 @ 08:00
Wind Visibility
170° at 12 knots Greater than 6 miles
Clouds
  • Broken at 3,000' AGL
Probability 30% Probable Sep-25 @ 06:00 - Sep-25 @ 08:00
Clouds
  • Overcast at 400' AGL
Conditions
  • Light Drizzle
  • Mist